Time;durP1;ratioP1;P1;durP2;ratioP2;P2;SDS_P1;SDS_P2;PMS_P1;PMS_P2;Temp;Humidity;BMP_temperature;BMP_pressure;BME280_temperature;BME280_humidity;BME280_pressure;Samples;Min_cycle;Max_cycle;Signal;HPM_P1;HPM_P2
2023/05/10 00:00:42;;;;;;;1.20;1.10;;;;;;;8.00;100.00;97655.66;1711915;75;669381;-73
2023/05/10 00:03:12;;;;;;;1.75;1.00;;;;;;;7.99;100.00;97657.63;1702560;75;743418;-73
2023/05/10 00:05:42;;;;;;;1.10;1.00;;;;;;;7.94;100.00;97660.97;1697041;75;1893334;-73
2023/05/10 00:08:13;;;;;;;1.55;1.15;;;;;;;7.93;100.00;97654.00;1701128;75;817090;-74
2023/05/10 00:10:43;;;;;;;1.35;1.20;;;;;;;7.76;100.00;97661.00;1707909;75;990848;-73
2023/05/10 00:13:13;;;;;;;1.80;1.20;;;;;;;7.76;100.00;97655.56;1677755;75;2788782;-74
2023/05/10 00:15:46;;;;;;;1.25;1.15;;;;;;;7.75;100.00;97656.78;1711619;75;673631;-73
2023/05/10 00:18:16;;;;;;;1.20;1.10;;;;;;;7.78;100.00;97648.44;1699744;75;926760;-75
2023/05/10 00:20:46;;;;;;;1.25;1.15;;;;;;;7.68;100.00;97649.66;1711714;75;675578;-73
2023/05/10 00:23:17;;;;;;;1.55;1.20;;;;;;;7.68;100.00;97641.50;1702167;75;758302;-74
2023/05/10 00:25:47;;;;;;;1.30;1.20;;;;;;;7.60;100.00;97643.78;1711182;75;679971;-74
2023/05/10 00:28:17;;;;;;;1.00;1.00;;;;;;;7.59;100.00;97642.25;1702365;75;758219;-76
2023/05/10 00:30:50;;;;;;;1.20;1.10;;;;;;;7.49;100.00;97640.75;1699201;75;1754141;-74
2023/05/10 00:33:20;;;;;;;1.40;1.30;;;;;;;7.43;100.00;97637.88;1702250;75;754082;-74
2023/05/10 00:35:50;;;;;;;1.30;1.20;;;;;;;7.34;100.00;97631.69;1711272;75;678370;-75
2023/05/10 00:38:20;;;;;;;1.15;1.05;;;;;;;7.35;100.00;97627.75;1689576;75;1782363;-74
2023/05/10 00:40:50;;;;;;;1.10;1.00;;;;;;;7.34;100.00;97627.00;1686820;75;2740465;-74
2023/05/10 00:43:21;;;;;;;1.30;1.20;;;;;;;7.24;100.00;97628.97;1702518;75;749957;-74
2023/05/10 00:45:54;;;;;;;0.90;0.90;;;;;;;7.26;100.00;97625.75;1711190;75;671403;-73
2023/05/10 00:48:25;;;;;;;1.00;0.90;;;;;;;7.23;100.00;97623.97;1703043;75;748256;-74
2023/05/10 00:50:55;;;;;;;1.00;0.80;;;;;;;7.18;100.00;97625.31;1711566;75;671011;-75
2023/05/10 00:53:26;;;;;;;1.25;1.15;;;;;;;7.19;100.00;97620.63;1689067;75;1844656;-74
2023/05/10 00:55:57;;;;;;;1.15;1.00;;;;;;;7.14;100.00;97616.53;1710806;75;672092;-73
2023/05/10 00:58:28;;;;;;;1.00;1.00;;;;;;;7.15;100.00;97611.88;1701295;75;752124;-76
2023/05/10 01:01:03;;;;;;;1.30;1.20;;;;;;;7.11;100.00;97616.69;1711463;75;685094;-74
2023/05/10 01:03:34;;;;;;;1.20;1.10;;;;;;;7.08;100.00;97610.19;1702529;75;763170;-76
2023/05/10 01:06:04;;;;;;;0.90;0.90;;;;;;;7.03;100.00;97616.25;1708627;75;967384;-74
2023/05/10 01:08:34;;;;;;;1.40;1.30;;;;;;;7.02;100.00;97612.00;1703123;75;747937;-75
2023/05/10 01:11:05;;;;;;;1.00;0.90;;;;;;;6.97;100.00;97604.44;1696865;75;1947226;-73
2023/05/10 01:13:40;;;;;;;1.10;1.00;;;;;;;6.93;100.00;97614.72;1698835;75;957297;-74
2023/05/10 01:16:13;;;;;;;1.80;1.10;;;;;;;6.92;100.00;97603.06;1711628;75;683359;-73
2023/05/10 01:18:45;;;;;;;1.10;1.00;;;;;;;6.85;100.00;97608.78;1699329;75;942223;-74
2023/05/10 01:21:27;;;;;;;1.20;1.10;;;;;;;6.83;100.00;97597.59;1711165;75;677620;-75
2023/05/10 01:24:56;;;;;;;1.20;1.10;;;;;;;6.78;100.00;97601.72;1687616;75;1965259;-76
2023/05/10 01:28:02;;;;;;;1.50;1.40;;;;;;;6.75;100.00;97601.84;1698449;75;943437;-74
2023/05/10 01:31:20;;;;;;;1.40;1.30;;;;;;;6.71;100.00;97602.00;1702458;75;769938;-74
2023/05/10 01:34:00;;;;;;;1.95;1.70;;;;;;;6.65;100.00;97598.34;1701999;75;787956;-74
2023/05/10 01:36:35;;;;;;;1.80;1.70;;;;;;;6.59;100.00;97594.69;1702453;75;822236;-74
2023/05/10 01:39:15;;;;;;;1.70;1.40;;;;;;;6.61;100.00;97593.06;1711586;75;678823;-75
2023/05/10 01:41:56;;;;;;;1.30;1.20;;;;;;;6.59;100.00;97587.31;1703597;75;680336;-76
2023/05/10 01:44:35;;;;;;;1.40;1.30;;;;;;;6.53;100.00;97586.38;1702143;75;978060;-73
2023/05/10 01:47:10;;;;;;;1.70;1.40;;;;;;;6.54;100.00;97581.69;1712209;75;678939;-75
2023/05/10 01:49:49;;;;;;;1.45;1.25;;;;;;;6.51;100.00;97588.03;1702701;67;773203;-76
2023/05/10 01:52:23;;;;;;;1.40;1.30;;;;;;;6.50;100.00;97589.25;1711654;75;674303;-76
2023/05/10 01:54:59;;;;;;;1.40;1.30;;;;;;;6.42;100.00;97591.47;1699081;75;969968;-73
2023/05/10 01:57:36;;;;;;;4.45;3.60;;;;;;;6.07;100.00;97582.75;1703246;75;709213;-74
2023/05/10 02:00:10;;;;;;;3.50;3.20;;;;;;;6.25;100.00;97587.50;1711324;75;681138;-73
2023/05/10 02:02:44;;;;;;;2.60;2.40;;;;;;;6.28;100.00;97579.22;1701881;75;815714;-74
2023/05/10 02:05:19;;;;;;;3.10;2.60;;;;;;;6.25;100.00;97585.53;1711844;75;672735;-75
2023/05/10 02:07:50;;;;;;;2.20;2.00;;;;;;;6.29;100.00;97586.16;1703927;75;680595;-75
2023/05/10 02:10:22;;;;;;;1.80;1.70;;;;;;;6.24;100.00;97583.28;1710876;75;784369;-75
2023/05/10 02:12:53;;;;;;;1.85;1.60;;;;;;;6.13;100.00;97578.25;1703488;75;681202;-75
2023/05/10 02:15:28;;;;;;;1.70;1.60;;;;;;;6.15;100.00;97578.56;1712325;75;667884;-73
2023/05/10 02:18:07;;;;;;;1.55;1.45;;;;;;;6.16;100.00;97575.41;1704181;75;748296;-75
2023/05/10 02:20:45;;;;;;;1.58;1.48;;;;;;;6.14;100.00;97580.53;1664741;75;7805001;-71
2023/05/10 02:23:16;;;;;;;1.50;1.40;;;;;;;6.13;100.00;97576.31;1712333;75;669275;-72
2023/05/10 02:25:47;;;;;;;;;;;;;;;5.97;100.00;97576.53;1700352;75;980907;-73
2023/05/10 02:28:19;;;;;;;1.85;1.55;;;;;;;6.02;100.00;97567.06;1711991;75;678526;-73
2023/05/10 02:30:51;;;;;;;1.90;1.40;;;;;;;6.06;100.00;97575.81;1689909;67;1847667;-74
2023/05/10 02:33:23;;;;;;;1.90;1.50;;;;;;;6.03;100.00;97565.84;1711668;75;679817;-74
2023/05/10 02:35:57;;;;;;;1.95;1.60;;;;;;;5.98;100.00;97567.91;1703218;75;701149;-74
2023/05/10 02:38:30;;;;;;;2.10;1.60;;;;;;;5.91;100.00;97560.00;1711800;75;677585;-74
2023/05/10 02:41:01;;;;;;;1.90;1.50;;;;;;;5.86;100.00;97559.84;1702676;75;746151;-75
2023/05/10 02:43:35;;;;;;;1.50;1.40;;;;;;;5.85;100.00;97561.81;1711244;75;734016;-75
2023/05/10 02:46:06;;;;;;;2.40;1.55;;;;;;;5.84;100.00;97557.56;1701056;75;857083;-73
2023/05/10 02:48:38;;;;;;;1.50;1.40;;;;;;;5.76;100.00;97564.47;1711932;75;675610;-74
2023/05/10 02:51:15;;;;;;;2.55;2.10;;;;;;;5.79;100.00;97566.28;1702633;75;740857;-73
2023/05/10 02:53:51;;;;;;;1.80;1.60;;;;;;;5.81;100.00;97569.34;1687912;75;1997424;-73
2023/05/10 02:56:31;;;;;;;1.90;1.50;;;;;;;5.80;100.00;97561.63;1697249;75;1896657;-73
2023/05/10 02:59:02;;;;;;;3.20;2.40;;;;;;;5.65;100.00;97573.03;1701545;75;872842;-75
2023/05/10 03:01:32;;;;;;;4.20;3.70;;;;;;;5.57;100.00;97569.06;1711824;75;679855;-73
2023/05/10 03:04:02;;;;;;;3.70;3.20;;;;;;;5.65;100.00;97569.53;1700947;75;875388;-75
2023/05/10 03:06:35;;;;;;;3.40;3.00;;;;;;;5.73;100.00;97562.66;1711607;75;676132;-73
2023/05/10 03:09:07;;;;;;;3.00;2.40;;;;;;;5.70;100.00;97568.97;1703324;75;682618;-74
2023/05/10 03:11:53;;;;;;;2.50;2.30;;;;;;;5.68;100.00;97565.97;1711729;75;682903;-73
2023/05/10 03:14:43;;;;;;;2.10;1.90;;;;;;;5.66;100.00;97558.25;1702210;75;755114;-74
2023/05/10 03:17:22;;;;;;;2.35;2.10;;;;;;;5.66;100.00;97562.94;1701404;67;880290;-73
2023/05/10 03:19:58;;;;;;;2.40;1.95;;;;;;;5.66;100.00;97563.69;1708771;75;920354;-75
2023/05/10 03:22:39;;;;;;;1.90;1.80;;;;;;;5.70;100.00;97569.75;1702694;75;740086;-73
2023/05/10 03:25:13;;;;;;;2.20;1.90;;;;;;;5.58;100.00;97562.44;1704212;75;675241;-73
2023/05/10 03:27:46;;;;;;;2.15;1.90;;;;;;;5.59;100.00;97566.66;1712077;75;675473;-75
2023/05/10 03:30:17;;;;;;;1.40;1.30;;;;;;;5.59;100.00;97569.38;1701767;75;837377;-74
2023/05/10 03:32:47;;;;;;;1.75;1.65;;;;;;;5.57;100.00;97560.16;1711519;75;682486;-73
2023/05/10 03:35:18;;;;;;;1.60;1.50;;;;;;;5.54;100.00;97564.53;1700642;75;951608;-74
2023/05/10 03:37:50;;;;;;;1.80;1.70;;;;;;;5.56;100.00;97562.13;1710491;75;829283;-75
2023/05/10 03:40:21;;;;;;;3.05;1.50;;;;;;;5.52;100.00;97564.94;1690513;75;1813558;-74
2023/05/10 03:42:51;;;;;;;1.80;1.50;;;;;;;5.51;100.00;97565.41;1711996;75;678355;-73
2023/05/10 03:45:23;;;;;;;1.70;1.60;;;;;;;5.54;100.00;97561.81;1703700;75;677261;-75
2023/05/10 03:47:53;;;;;;;1.70;1.60;;;;;;;5.52;100.00;97575.81;1709281;75;869411;-75
2023/05/10 03:50:26;;;;;;;1.45;1.35;;;;;;;5.51;100.00;97570.84;1703997;75;677143;-75
2023/05/10 03:53:00;;;;;;;2.00;1.80;;;;;;;5.42;100.00;97579.69;1711941;75;701337;-75
2023/05/10 03:55:30;;;;;;;2.10;1.90;;;;;;;5.49;100.00;97575.94;1700264;75;938879;-74
2023/05/10 03:58:00;;;;;;;2.80;2.10;;;;;;;5.45;100.00;97578.03;1711520;75;671958;-74
2023/05/10 04:00:30;;;;;;;2.10;1.85;;;;;;;5.50;100.00;97572.03;1702678;75;761356;-73
2023/05/10 04:03:00;;;;;;;2.40;2.20;;;;;;;5.47;100.00;97575.63;1711520;75;673509;-74
2023/05/10 04:05:30;;;;;;;2.20;2.00;;;;;;;5.43;100.00;97575.75;1691428;75;1674720;-76
2023/05/10 04:08:03;;;;;;;2.10;1.90;;;;;;;5.48;100.00;97579.84;1708950;75;959959;-74
2023/05/10 04:10:34;;;;;;;2.15;1.90;;;;;;;5.51;100.00;97570.84;1702969;75;745241;-74
2023/05/10 04:13:04;;;;;;;2.20;2.00;;;;;;;5.52;100.00;97575.06;1712046;75;675484;-74
2023/05/10 04:15:35;;;;;;;2.10;1.90;;;;;;;5.57;100.00;97582.63;1702410;75;746061;-75
2023/05/10 04:18:05;;;;;;;1.90;1.70;;;;;;;5.56;100.00;97575.69;1699720;75;1690322;-74
2023/05/10 04:20:37;;;;;;;1.80;1.70;;;;;;;5.52;100.00;97575.81;1699660;75;920250;-74
2023/05/10 04:23:09;;;;;;;1.85;1.65;;;;;;;5.57;100.00;97582.63;1708474;75;955486;-74
2023/05/10 04:25:40;;;;;;;2.05;1.85;;;;;;;5.63;100.00;97575.44;1700721;75;844892;-73
2023/05/10 04:28:10;;;;;;;1.75;1.60;;;;;;;5.64;100.00;97581.63;1697543;75;1811537;-73
2023/05/10 04:30:40;;;;;;;1.90;1.80;;;;;;;5.68;100.00;97577.56;1701265;75;771945;-73
2023/05/10 04:33:10;;;;;;;1.85;1.65;;;;;;;5.74;100.00;97586.66;1699248;75;1731784;-74
2023/05/10 04:35:40;;;;;;;2.25;1.90;;;;;;;5.74;100.00;97586.66;1688461;75;1860451;-78
2023/05/10 04:38:13;;;;;;;1.90;1.70;;;;;;;5.76;100.00;97592.41;1711547;75;681269;-75
2023/05/10 04:40:43;;;;;;;1.80;1.70;;;;;;;5.87;100.00;97589.28;1702546;75;754968;-73
2023/05/10 04:43:13;;;;;;;3.50;2.75;;;;;;;5.95;100.00;97590.56;1711654;75;682512;-74
2023/05/10 04:45:44;;;;;;;4.05;3.65;;;;;;;5.98;100.00;97599.78;1678340;75;2719498;-73
2023/05/10 04:48:14;;;;;;;3.75;3.20;;;;;;;6.06;100.00;97587.44;1711791;75;684960;-73
2023/05/10 04:50:45;;;;;;;3.40;3.00;;;;;;;6.11;100.00;97584.16;1687143;75;2001753;-75
2023/05/10 04:53:18;;;;;;;4.15;3.75;;;;;;;6.20;100.00;97594.28;1711124;75;676932;-74
2023/05/10 04:55:48;;;;;;;7.70;4.90;;;;;;;6.38;100.00;97602.50;1699714;75;942426;-75
2023/05/10 04:58:20;;;;;;;4.50;3.70;;;;;;;6.45;100.00;97598.75;1711930;75;675254;-74
2023/05/10 05:00:51;;;;;;;3.55;3.05;;;;;;;6.46;100.00;97600.25;1677471;75;2793294;-76
2023/05/10 05:03:21;;;;;;;3.70;2.30;;;;;;;6.53;100.00;97599.97;1708759;75;982436;-73
2023/05/10 05:05:52;;;;;;;2.90;2.50;;;;;;;6.57;100.00;97599.84;1701420;75;857565;-74
2023/05/10 05:08:25;;;;;;;2.60;2.20;;;;;;;6.62;100.00;97599.25;1711731;75;675512;-76
2023/05/10 05:10:55;;;;;;;2.70;2.30;;;;;;;6.71;100.00;97593.06;1700478;75;928632;-75
2023/05/10 05:13:25;;;;;;;2.50;2.30;;;;;;;6.78;100.00;97606.38;1699834;75;1721994;-74
2023/05/10 05:15:56;;;;;;;2.00;1.90;;;;;;;6.82;100.00;97596.09;1699713;75;979791;-74
2023/05/10 05:18:26;;;;;;;2.30;2.00;;;;;;;6.87;100.00;97602.91;1711863;75;733761;-74
2023/05/10 05:20:57;;;;;;;2.45;2.20;;;;;;;6.93;100.00;97610.03;1701092;75;893895;-73
2023/05/10 05:23:30;;;;;;;2.60;2.00;;;;;;;6.99;100.00;97599.28;1709823;75;932990;-74
2023/05/10 05:26:00;;;;;;;2.35;2.10;;;;;;;7.06;100.00;97601.72;1691671;75;1710047;-73
2023/05/10 05:28:36;;;;;;;2.30;2.00;;;;;;;7.16;100.00;97605.19;1712783;75;673504;-74
2023/05/10 05:31:07;;;;;;;2.10;1.90;;;;;;;7.24;100.00;97607.19;1700212;75;955398;-73
2023/05/10 05:33:37;;;;;;;1.90;1.70;;;;;;;7.31;100.00;97608.84;1712722;75;688249;-74
2023/05/10 05:36:09;;;;;;;1.95;1.75;;;;;;;7.41;100.00;97609.59;1633264;75;6563865;-73
2023/05/10 05:38:42;;;;;;;2.00;1.80;;;;;;;7.55;100.00;97614.44;1711670;75;689256;-72
2023/05/10 05:41:13;;;;;;;2.50;2.10;;;;;;;7.68;100.00;97612.28;1699561;75;980341;-75
2023/05/10 05:43:43;;;;;;;2.00;1.80;;;;;;;7.80;100.00;97615.28;1712058;75;722717;-74
2023/05/10 05:46:13;;;;;;;2.60;2.30;;;;;;;7.88;100.00;97619.94;1702615;75;756082;-76
2023/05/10 05:48:43;;;;;;;2.95;2.45;;;;;;;8.01;100.00;97611.59;1712073;75;680037;-77
2023/05/10 05:51:15;;;;;;;3.90;3.50;;;;;;;8.06;100.00;97623.84;1701987;75;743751;-76
2023/05/10 05:53:48;;;;;;;6.50;4.30;;;;;;;8.19;100.00;97612.75;1698731;75;1794810;-74
2023/05/10 05:56:23;;;;;;;4.55;3.20;;;;;;;8.40;100.00;97616.47;1702822;75;752129;-72
2023/05/10 05:58:54;;;;;;;4.90;3.50;;;;;;;8.58;100.00;97619.09;1705159;75;828014;-73
2023/05/10 06:01:24;;;;;;;2.90;2.60;;;;;;;8.77;100.00;97625.22;1711624;75;704582;-77
2023/05/10 06:03:54;;;;;;;2.40;2.20;;;;;;;8.89;100.00;97621.50;1703615;75;742271;-72
2023/05/10 06:06:25;;;;;;;3.20;2.90;;;;;;;9.07;100.00;97630.81;1708723;75;953764;-73
2023/05/10 06:08:57;;;;;;;4.30;3.30;;;;;;;9.16;100.00;97628.75;1703680;75;677601;-78
2023/05/10 06:11:28;;;;;;;3.80;3.40;;;;;;;9.19;100.00;97632.53;1711921;75;674885;-75
2023/05/10 06:13:59;;;;;;;4.70;3.50;;;;;;;9.28;100.00;97628.97;1702144;75;787427;-74
2023/05/10 06:16:29;;;;;;;4.20;3.50;;;;;;;9.42;100.00;97632.97;1710162;75;821533;-75
2023/05/10 06:18:59;;;;;;;3.60;2.70;;;;;;;9.61;100.00;97631.56;1702522;75;741025;-74
2023/05/10 06:21:29;;;;;;;9.05;5.10;;;;;;;9.47;100.00;97637.78;1711874;75;686526;-75
2023/05/10 06:24:02;;;;;;;5.90;4.10;;;;;;;9.63;100.00;97637.34;1700612;75;945304;-74
2023/05/10 06:26:32;;;;;;;5.40;4.10;;;;;;;9.72;100.00;97631.78;1711970;75;702389;-73
2023/05/10 06:29:03;;;;;;;3.80;3.45;;;;;;;9.95;100.00;97641.09;1702166;75;874155;-75
2023/05/10 06:31:33;;;;;;;2.50;2.30;;;;;;;10.22;100.00;97636.56;1712082;75;677016;-73
2023/05/10 06:34:08;;;;;;;3.40;2.60;;;;;;;10.33;100.00;97627.81;1595483;75;9827016;-74
2023/05/10 06:36:38;;;;;;;3.65;3.05;;;;;;;10.24;100.00;97634.13;1712867;75;675311;-75
2023/05/10 06:39:11;;;;;;;5.65;4.65;;;;;;;10.33;100.00;97633.28;1704456;75;687202;-73
2023/05/10 06:41:41;;;;;;;5.90;3.40;;;;;;;10.60;100.00;97624.72;1711824;75;672651;-73
2023/05/10 06:44:12;;;;;;;3.40;2.80;;;;;;;10.80;100.00;97629.50;1704511;75;672231;-77
2023/05/10 06:46:43;;;;;;;3.50;2.80;;;;;;;10.87;100.00;97628.31;1711273;75;767172;-76
2023/05/10 06:49:13;;;;;;;3.90;3.10;;;;;;;11.08;100.00;97626.34;1700591;75;975049;-75
2023/05/10 06:51:43;;;;;;;5.90;4.60;;;;;;;10.84;100.00;97624.56;1711793;75;711562;-76
2023/05/10 06:54:19;;;;;;;6.20;4.55;;;;;;;10.94;100.00;97627.91;1703330;75;677787;-74
2023/05/10 06:56:50;;;;;;;12.40;5.40;;;;;;;10.88;100.00;97624.34;1711507;75;675260;-75
2023/05/10 06:59:21;;;;;;;7.00;5.65;;;;;;;11.17;100.00;97625.47;1702616;75;755586;-73
2023/05/10 07:01:51;;;;;;;8.65;4.15;;;;;;;11.45;100.00;97620.31;1710162;75;858105;-73
2023/05/10 07:04:21;;;;;;;6.55;4.75;;;;;;;11.52;100.00;97620.63;1703361;75;748597;-77
2023/05/10 07:06:52;;;;;;;4.45;3.35;;;;;;;11.81;100.00;97615.41;1712120;75;681087;-73
2023/05/10 07:09:25;;;;;;;6.85;3.65;;;;;;;11.83;100.00;97610.19;1703201;75;749218;-74
2023/05/10 07:11:58;;;;;;;5.20;3.80;;;;;;;11.96;100.00;97613.34;1712308;75;674958;-75
2023/05/10 07:14:28;;;;;;;4.65;3.60;;;;;;;12.13;100.00;97613.47;1703075;75;740844;-73
2023/05/10 07:16:58;;;;;;;6.80;4.65;;;;;;;11.93;100.00;97611.56;1711232;75;734335;-73
2023/05/10 07:19:29;;;;;;;7.80;4.60;;;;;;;12.21;100.00;97611.78;1699291;75;984777;-76
2023/05/10 07:21:59;;;;;;;5.20;4.30;;;;;;;12.24;97.42;97616.31;1711647;75;678643;-74
2023/05/10 07:24:32;;;;;;;4.10;3.50;;;;;;;12.52;97.89;97619.22;1688984;75;1856967;-74
2023/05/10 07:27:02;;;;;;;3.85;2.95;;;;;;;12.55;99.62;97610.03;1712168;75;676940;-74
2023/05/10 07:29:33;;;;;;;4.45;3.35;;;;;;;12.50;99.49;97607.97;1703153;75;736342;-75
2023/05/10 07:32:06;;;;;;;4.30;3.20;;;;;;;12.92;97.98;97606.47;1712197;75;677360;-75
2023/05/10 07:34:36;;;;;;;5.15;3.50;;;;;;;12.92;97.32;97611.22;1703147;75;751209;-74
2023/05/10 07:37:06;;;;;;;5.20;3.55;;;;;;;12.93;95.34;97607.97;1711774;75;693753;-73
2023/05/10 07:39:39;;;;;;;5.20;2.85;;;;;;;13.09;97.22;97616.78;1690446;75;1759889;-74
2023/05/10 07:42:09;;;;;;;4.00;3.00;;;;;;;13.15;92.36;97614.78;1697158;75;1933101;-74
2023/05/10 07:44:39;;;;;;;4.00;3.05;;;;;;;13.28;90.93;97614.38;1702841;75;743987;-74
2023/05/10 07:47:09;;;;;;;5.45;3.15;;;;;;;13.38;91.71;97613.66;1711609;75;676634;-75
2023/05/10 07:49:39;;;;;;;4.20;2.60;;;;;;;13.67;87.92;97608.97;1702745;75;771358;-74
2023/05/10 07:52:09;;;;;;;4.30;3.35;;;;;;;13.69;87.84;97611.97;1711012;75;754325;-75
2023/05/10 07:54:42;;;;;;;3.70;2.75;;;;;;;13.83;86.81;97613.00;1702583;75;743329;-74
2023/05/10 07:57:14;;;;;;;4.00;3.30;;;;;;;13.63;86.07;97606.47;1712064;75;673832;-75
2023/05/10 07:59:44;;;;;;;5.90;4.00;;;;;;;13.75;87.83;97615.47;1703150;75;725101;-76
2023/05/10 08:02:15;;;;;;;6.70;4.50;;;;;;;13.90;88.57;97612.50;1711979;75;670896;-74
2023/05/10 08:04:45;;;;;;;6.00;4.25;;;;;;;14.01;87.31;97609.75;1691413;75;1700953;-74
2023/05/10 08:07:15;;;;;;;5.95;4.25;;;;;;;14.00;85.13;97611.00;1710443;75;816766;-75
2023/05/10 08:09:48;;;;;;;5.20;4.15;;;;;;;14.16;80.89;97614.25;1632944;75;6554111;-75
2023/05/10 08:12:18;;;;;;;6.10;4.00;;;;;;;14.38;80.76;97607.97;1712246;75;674137;-73
2023/05/10 08:14:48;;;;;;;3.90;2.95;;;;;;;14.53;79.05;97618.72;1702127;75;789043;-73
2023/05/10 08:17:18;;;;;;;4.70;3.40;;;;;;;14.52;79.47;97609.72;1699460;75;1760718;-74
2023/05/10 08:19:51;;;;;;;6.40;4.00;;;;;;;14.49;80.88;97616.25;1703043;75;743357;-73
2023/05/10 08:22:22;;;;;;;7.35;4.20;;;;;;;14.54;81.18;97618.25;1711229;75;724034;-77
2023/05/10 08:24:54;;;;;;;7.70;3.90;;;;;;;14.69;79.41;97602.19;1701736;75;794540;-76
2023/05/10 08:27:25;;;;;;;7.50;4.40;;;;;;;14.47;75.60;97610.47;1709958;75;869652;-73
2023/05/10 08:29:55;;;;;;;4.75;3.30;;;;;;;14.67;72.74;97609.47;1703400;75;752863;-77
2023/05/10 08:32:25;;;;;;;4.65;3.35;;;;;;;14.68;72.04;97608.97;1709206;75;929369;-74
2023/05/10 08:34:55;;;;;;;4.35;3.05;;;;;;;14.80;75.79;97615.19;1702525;75;759886;-73
2023/05/10 08:37:26;;;;;;;4.80;3.20;;;;;;;14.66;73.92;97610.72;1712181;75;672125;-73
2023/05/10 08:39:59;;;;;;;3.95;3.00;;;;;;;14.86;73.20;97617.94;1691097;75;1758802;-73
2023/05/10 08:42:33;;;;;;;2.90;2.50;;;;;;;14.88;65.83;97612.66;1697906;75;1930158;-76
2023/05/10 08:45:05;;;;;;;3.80;3.10;;;;;;;14.74;67.33;97613.72;1677069;75;2898822;-73
2023/05/10 08:47:36;;;;;;;4.30;3.10;;;;;;;14.84;69.07;97620.44;1712115;75;675529;-75
2023/05/10 08:50:08;;;;;;;4.25;3.10;;;;;;;14.88;71.14;97604.41;1703650;75;771422;-74
2023/05/10 08:52:43;;;;;;;3.90;3.00;;;;;;;15.06;69.68;97605.84;1711962;75;673605;-76
2023/05/10 08:55:16;;;;;;;4.60;3.30;;;;;;;15.05;69.05;97607.09;1691139;75;1755429;-73
2023/05/10 08:57:46;;;;;;;6.55;4.20;;;;;;;14.97;71.67;97617.91;1712773;75;673235;-75
2023/05/10 09:00:18;;;;;;;5.80;3.50;;;;;;;15.13;69.08;97608.81;1688367;75;1979686;-73
2023/05/10 09:02:49;;;;;;;4.80;2.90;;;;;;;15.16;62.88;97606.31;1700478;75;1703733;-72
2023/05/10 09:05:19;;;;;;;3.25;2.55;;;;;;;15.34;65.45;97600.19;1703370;75;746372;-73
2023/05/10 09:07:49;;;;;;;4.50;3.00;;;;;;;15.25;65.20;97600.47;1711900;75;675884;-74
2023/05/10 09:10:25;;;;;;;4.15;3.20;;;;;;;15.47;66.62;97605.16;1703999;75;735469;-76
2023/05/10 09:12:56;;;;;;;5.05;3.70;;;;;;;15.70;67.44;97595.50;1704340;75;680617;-72
2023/05/10 09:15:27;;;;;;;6.40;3.80;;;;;;;15.72;68.22;97601.25;1697906;75;1925594;-74
2023/05/10 09:18:02;;;;;;;4.20;3.10;;;;;;;16.04;68.52;97602.78;1704246;75;700145;-74
2023/05/10 09:20:32;;;;;;;3.60;2.80;;;;;;;16.16;66.24;97601.44;1708906;75;946452;-75
2023/05/10 09:23:02;;;;;;;2.80;2.40;;;;;;;16.00;65.04;97603.06;1704710;75;676011;-74
2023/05/10 09:25:36;;;;;;;5.40;3.30;;;;;;;16.07;63.80;97593.50;1712783;75;680838;-74
2023/05/10 09:28:10;;;;;;;3.50;2.70;;;;;;;16.36;63.66;97603.78;1692136;75;1705559;-74
2023/05/10 09:30:42;;;;;;;4.35;3.20;;;;;;;16.57;65.96;97601.31;1712421;75;679418;-74
2023/05/10 09:33:12;;;;;;;5.70;3.80;;;;;;;16.60;66.96;97591.97;1689739;75;1952411;-76
2023/05/10 09:35:43;;;;;;;4.95;3.90;;;;;;;16.50;64.00;97596.34;1712634;75;689898;-78
2023/05/10 09:38:13;;;;;;;4.25;3.30;;;;;;;16.35;62.41;97599.50;1704699;75;681380;-77
2023/05/10 09:40:57;;;;;;;2.80;2.50;;;;;;;16.99;61.09;97596.34;1711625;75;718158;-75
2023/05/10 09:43:27;;;;;;;2.90;2.50;;;;;;;17.04;59.72;97589.25;1704037;75;755798;-75
2023/05/10 09:45:57;;;;;;;3.60;2.85;;;;;;;17.34;62.26;97585.59;1713243;75;671428;-76
2023/05/10 09:48:28;;;;;;;4.40;3.70;;;;;;;16.99;61.13;97581.78;1690600;75;1847785;-76
2023/05/10 09:51:01;;;;;;;3.70;3.30;;;;;;;17.19;60.64;97572.22;1712597;75;706152;-76
2023/05/10 09:53:31;;;;;;;7.30;4.10;;;;;;;17.11;59.68;97583.13;1677549;75;2895575;-76
2023/05/10 09:56:04;;;;;;;5.45;4.15;;;;;;;17.29;60.93;97572.59;1711284;75;788522;-75
2023/05/10 09:58:34;;;;;;;4.40;3.55;;;;;;;17.36;61.83;97581.03;1703120;75;745658;-75
2023/05/10 10:01:04;;;;;;;6.05;3.80;;;;;;;17.14;57.96;97565.50;1712574;75;679301;-75
2023/05/10 10:03:35;;;;;;;5.00;3.05;;;;;;;17.52;60.18;97564.75;1703027;75;761259;-76
2023/05/10 10:06:05;;;;;;;4.40;3.00;;;;;;;17.59;58.47;97566.91;1698831;75;1856869;-75
2023/05/10 10:08:35;;;;;;;4.30;2.70;;;;;;;17.94;60.18;97568.63;1703954;75;752514;-78
2023/05/10 10:11:08;;;;;;;4.50;2.70;;;;;;;17.94;57.14;97567.91;1685287;75;2985596;-76
2023/05/10 10:13:39;;;;;;;3.40;2.40;;;;;;;17.67;55.94;97570.53;1703599;75;747620;-74
2023/05/10 10:16:11;;;;;;;5.30;3.70;;;;;;;17.70;56.70;97563.22;1712670;75;687519;-74
2023/05/10 10:18:41;;;;;;;4.00;3.00;;;;;;;17.80;55.31;97554.03;1704278;75;768422;-75
2023/05/10 10:21:12;;;;;;;4.60;3.10;;;;;;;18.15;57.61;97551.44;1665319;75;4727955;-78
2023/05/10 10:23:43;;;;;;;4.60;3.00;;;;;;;18.22;55.77;97557.09;1689929;75;1923589;-75
2023/05/10 10:26:17;;;;;;;5.40;3.50;;;;;;;18.13;55.48;97557.50;1713845;75;674874;-75
2023/05/10 10:29:00;;;;;;;3.95;2.95;;;;;;;18.37;55.16;97558.59;1679934;75;2787767;-74
2023/05/10 10:31:41;;;;;;;3.50;2.60;;;;;;;18.70;51.73;97548.94;1705330;75;702349;-74
2023/05/10 10:34:23;;;;;;;4.20;2.00;;;;;;;18.52;53.14;97536.69;1713289;75;674905;-76
2023/05/10 10:36:53;;;;;;;3.60;2.80;;;;;;;18.61;53.11;97546.56;1704546;75;765886;-76
2023/05/10 10:39:24;;;;;;;3.80;2.60;;;;;;;18.85;53.66;97549.16;1713493;75;673162;-74
2023/05/10 10:42:00;;;;;;;4.60;2.90;;;;;;;18.52;54.53;97542.22;1703187;75;754546;-76
2023/05/10 10:44:41;;;;;;;4.00;3.10;;;;;;;18.47;54.16;97545.81;1706662;75;681814;-72
2023/05/10 10:47:33;;;;;;;4.20;3.30;;;;;;;18.97;55.07;97543.38;1712407;75;731809;-76
2023/05/10 10:50:12;;;;;;;4.40;3.50;;;;;;;18.84;55.21;97541.38;1702873;75;754135;-76
2023/05/10 10:52:43;;;;;;;3.40;2.90;;;;;;;18.56;55.07;97537.09;1690304;75;1874258;-74
2023/05/10 10:55:17;;;;;;;6.10;3.20;;;;;;;18.49;55.18;97538.47;1713102;75;674280;-74
2023/05/10 10:57:54;;;;;;;4.00;2.80;;;;;;;18.41;54.26;97539.66;1705351;75;677876;-76
2023/05/10 11:00:30;;;;;;;;;;;;;;;18.35;55.54;97539.75;1713369;75;672434;-76
2023/05/10 11:03:02;;;;;;;3.30;2.50;;;;;;;18.41;54.48;97534.09;1704254;75;732016;-76
2023/05/10 11:05:42;;;;;;;3.70;2.30;;;;;;;18.33;54.06;97531.22;1709497;75;984889;-76
2023/05/10 11:08:29;;;;;;;4.65;3.45;;;;;;;17.73;56.22;97534.50;1703645;75;742373;-74
2023/05/10 11:11:10;;;;;;;5.10;3.70;;;;;;;17.56;56.00;97529.94;1689149;75;1770184;-76
2023/05/10 11:13:48;;;;;;;5.80;2.90;;;;;;;17.79;56.78;97529.59;1712630;75;672739;-75
2023/05/10 11:16:24;;;;;;;3.40;2.80;;;;;;;17.60;nan;97524.09;1619410;75;7617138;-75
2023/05/10 11:19:14;;;;;;;5.60;3.50;;;;;;;17.45;57.39;97530.84;1655291;75;4894636;-73
2023/05/10 11:21:53;;;;;;;4.40;3.00;;;;;;;17.28;57.99;97526.84;1711769;75;673961;-76
2023/05/10 11:24:30;;;;;;;5.15;2.70;;;;;;;17.49;57.75;97519.50;1703146;75;748636;-77
2023/05/10 11:27:01;;;;;;;3.50;2.50;;;;;;;17.30;57.92;97519.50;1703324;75;720128;-76
2023/05/10 11:29:33;;;;;;;4.25;3.20;;;;;;;17.24;58.21;97518.84;1712411;75;683233;-74
2023/05/10 11:32:07;;;;;;;4.35;2.90;;;;;;;17.20;58.02;97519.16;1689845;75;1880436;-74
2023/05/10 11:34:38;;;;;;;3.10;2.40;;;;;;;17.25;56.90;97515.56;1712399;75;675272;-73
2023/05/10 11:37:08;;;;;;;4.00;2.00;;;;;;;17.23;56.84;97520.84;1679459;75;2749787;-77
2023/05/10 11:39:40;;;;;;;2.70;2.00;;;;;;;17.36;57.02;97522.19;1711779;75;674879;-75
2023/05/10 11:42:11;;;;;;;3.00;1.90;;;;;;;17.28;57.49;97518.53;1703822;75;672329;-76
2023/05/10 11:44:45;;;;;;;2.90;2.30;;;;;;;17.27;56.81;97517.81;1712030;75;676997;-75
2023/05/10 11:47:16;;;;;;;3.10;2.70;;;;;;;16.86;56.98;97518.84;1703057;75;772352;-74
2023/05/10 11:49:48;;;;;;;3.00;2.40;;;;;;;16.95;56.62;97515.69;1712037;75;673257;-76